createdAt,value
2017-08-13T00:00:29.558Z,100890.86
2017-08-13T00:02:56.955Z,100894.34
2017-08-13T00:05:24.355Z,100894.25
2017-08-13T00:07:51.750Z,100903.41
2017-08-13T00:10:19.350Z,100901.64
2017-08-13T00:12:46.751Z,100893.80
2017-08-13T00:15:14.142Z,100899.97
2017-08-13T00:17:41.535Z,100897.45
2017-08-13T00:20:08.935Z,100894.73
2017-08-13T00:22:36.338Z,100905.88
2017-08-13T00:25:03.735Z,100906.51
2017-08-13T00:27:31.136Z,100910.31
2017-08-13T00:29:58.526Z,100913.00
2017-08-13T00:32:25.919Z,100913.22
2017-08-13T00:34:53.322Z,100915.02
2017-08-13T00:37:20.712Z,100921.20
2017-08-13T00:39:48.107Z,100918.14
2017-08-13T00:42:15.496Z,100916.97
2017-08-13T00:44:42.899Z,100916.26
2017-08-13T00:47:10.290Z,100920.91
2017-08-13T00:49:37.692Z,100923.88
2017-08-13T00:52:05.086Z,100918.52
2017-08-13T00:54:32.469Z,100917.81
2017-08-13T00:56:59.871Z,100922.38
2017-08-13T00:59:27.274Z,100916.60
2017-08-13T01:01:54.663Z,100911.03
2017-08-13T01:04:22.058Z,100914.70
2017-08-13T01:06:49.463Z,100914.06
2017-08-13T01:09:17.066Z,100918.49
2017-08-13T01:11:44.469Z,100915.95
2017-08-13T01:14:11.862Z,100909.46
2017-08-13T01:16:39.255Z,100915.66
2017-08-13T01:19:06.642Z,100911.43
2017-08-13T01:21:34.265Z,100915.73
2017-08-13T01:24:01.642Z,100918.73
2017-08-13T01:26:29.038Z,100919.91
2017-08-13T01:28:56.432Z,100924.55
2017-08-13T01:31:23.821Z,100927.19
2017-08-13T01:33:51.220Z,100924.05
2017-08-13T01:36:18.821Z,100927.94
2017-08-13T01:38:46.223Z,100921.80
2017-08-13T01:41:13.625Z,100933.71
2017-08-13T01:43:41.004Z,100926.81
2017-08-13T01:46:08.420Z,100930.04
2017-08-13T01:48:35.819Z,100938.77
2017-08-13T01:51:03.209Z,100937.63
2017-08-13T01:53:30.595Z,100927.94
2017-08-13T01:55:57.999Z,100933.71
2017-08-13T01:58:25.390Z,100934.00
2017-08-13T02:00:52.793Z,100935.96
2017-08-13T02:03:20.179Z,100926.09
2017-08-13T02:05:47.572Z,100936.09
2017-08-13T02:08:14.953Z,100935.25
2017-08-13T02:10:42.343Z,100945.11
2017-08-13T02:13:09.733Z,100942.42
2017-08-13T02:15:37.135Z,100945.02
2017-08-13T02:18:04.531Z,100942.13
2017-08-13T02:20:32.134Z,100941.91
2017-08-13T02:22:59.743Z,100945.37
2017-08-13T02:25:27.135Z,100941.28
2017-08-13T02:27:54.526Z,100938.59
2017-08-13T02:30:22.139Z,100946.39
2017-08-13T02:32:49.540Z,100945.94
2017-08-13T02:35:16.937Z,100951.30
2017-08-13T02:37:44.323Z,100958.69
2017-08-13T02:40:11.719Z,100967.67
2017-08-13T02:42:39.106Z,100964.06
2017-08-13T02:45:06.490Z,100962.75
2017-08-13T02:47:33.916Z,100958.08
2017-08-13T02:50:01.299Z,100967.53
2017-08-13T02:52:28.691Z,100967.95
2017-08-13T02:54:56.083Z,100966.10
2017-08-13T02:57:23.483Z,100972.16
2017-08-13T02:59:50.870Z,100970.19
2017-08-13T03:02:18.267Z,100969.00
2017-08-13T03:04:45.666Z,100976.55
2017-08-13T03:07:13.051Z,100977.71
2017-08-13T03:09:40.457Z,100978.53
2017-08-13T03:12:07.846Z,100978.67
2017-08-13T03:14:35.246Z,100978.31
2017-08-13T03:17:02.698Z,100985.44
2017-08-13T03:19:30.098Z,100981.75
2017-08-13T03:21:57.482Z,100982.27
2017-08-13T03:24:25.102Z,100984.65
2017-08-13T03:26:52.703Z,100985.56
2017-08-13T03:29:20.106Z,100978.66
2017-08-13T03:31:47.506Z,100987.44
2017-08-13T03:34:14.895Z,100985.70
2017-08-13T03:36:42.290Z,100997.22
2017-08-13T03:39:09.905Z,100993.83
2017-08-13T03:41:37.303Z,100998.09
2017-08-13T03:44:04.694Z,100992.60
2017-08-13T03:46:32.075Z,100995.42
2017-08-13T03:48:59.693Z,101004.97
2017-08-13T03:51:27.075Z,101009.55
2017-08-13T03:53:54.504Z,101010.85
2017-08-13T03:56:21.890Z,101003.05
2017-08-13T03:58:49.283Z,101007.66
2017-08-13T04:01:16.706Z,101011.48
2017-08-13T04:03:44.094Z,101012.20
2017-08-13T04:06:11.494Z,101011.78
2017-08-13T04:08:38.882Z,101017.89
2017-08-13T04:11:06.265Z,101017.39
2017-08-13T04:13:33.654Z,101021.58
2017-08-13T04:16:01.086Z,101029.81
2017-08-13T04:18:28.464Z,101026.46
2017-08-13T04:20:55.858Z,101027.71
2017-08-13T04:23:23.259Z,101034.36
2017-08-13T04:25:50.646Z,101032.98
2017-08-13T04:28:18.051Z,101034.38
2017-08-13T04:30:45.447Z,101038.33
2017-08-13T04:33:12.834Z,101035.79
2017-08-13T04:35:40.245Z,101033.08
2017-08-13T04:38:07.626Z,101041.83
2017-08-13T04:40:35.024Z,101045.45
2017-08-13T04:43:02.422Z,101048.40
2017-08-13T04:45:29.819Z,101053.16
2017-08-13T04:47:57.219Z,101063.70
2017-08-13T04:50:24.613Z,101065.91
2017-08-13T04:52:52.022Z,101071.38
2017-08-13T04:55:19.390Z,101075.95
2017-08-13T04:57:46.784Z,101077.05
2017-08-13T05:00:14.165Z,101087.73
2017-08-13T05:02:41.567Z,101087.63
2017-08-13T05:05:08.964Z,101086.98
2017-08-13T05:07:36.361Z,101087.70
2017-08-13T05:10:03.754Z,101088.88
2017-08-13T05:12:31.175Z,101093.20
2017-08-13T05:14:58.572Z,101096.41
2017-08-13T05:17:25.974Z,101089.62
2017-08-13T05:19:53.361Z,101088.05
2017-08-13T05:22:20.758Z,101095.80
2017-08-13T05:24:48.177Z,101098.36
2017-08-13T05:27:15.572Z,101106.30
2017-08-13T05:29:42.975Z,101108.66
2017-08-13T05:32:10.367Z,101108.23
2017-08-13T05:34:37.770Z,101124.77
2017-08-13T05:37:05.166Z,101115.07
2017-08-13T05:39:32.567Z,101125.72
2017-08-13T05:41:59.959Z,101120.91
2017-08-13T05:44:27.361Z,101124.99
2017-08-13T05:46:54.750Z,101121.69
2017-08-13T05:49:22.172Z,101118.16
2017-08-13T05:51:49.559Z,101119.82
2017-08-13T05:54:16.967Z,101121.17
2017-08-13T05:56:44.362Z,101131.89
2017-08-13T05:59:11.758Z,101133.70
2017-08-13T06:01:39.150Z,101136.55
2017-08-13T06:04:06.549Z,101135.88
2017-08-13T06:06:33.943Z,101151.64
2017-08-13T06:09:01.339Z,101151.00
2017-08-13T06:11:28.748Z,101157.55
2017-08-13T06:13:56.139Z,101157.30
2017-08-13T06:16:23.530Z,101163.23
2017-08-13T06:18:50.918Z,101162.20
2017-08-13T06:21:18.307Z,101166.12
2017-08-13T06:23:45.712Z,101171.16
2017-08-13T06:26:13.103Z,101172.41
2017-08-13T06:28:40.482Z,101175.75
2017-08-13T06:31:07.888Z,101180.97
2017-08-13T06:33:35.278Z,101178.98
2017-08-13T06:36:02.687Z,101180.18
2017-08-13T06:38:30.083Z,101182.36
2017-08-13T06:40:57.485Z,101185.52
2017-08-13T06:43:24.866Z,101188.34
2017-08-13T06:45:52.344Z,101193.34
2017-08-13T06:48:19.740Z,101189.81
2017-08-13T06:50:47.131Z,101197.61
2017-08-13T06:53:14.606Z,101195.22
2017-08-13T06:55:42.003Z,101204.60
2017-08-13T06:58:09.404Z,101203.42
2017-08-13T07:00:36.799Z,101199.02
2017-08-13T07:03:04.195Z,101215.97
2017-08-13T07:05:31.577Z,101217.34
2017-08-13T07:07:58.969Z,101218.45
2017-08-13T07:10:26.382Z,101224.08
2017-08-13T07:12:54.451Z,101216.59
2017-08-13T07:15:21.847Z,101216.31
2017-08-13T07:17:49.241Z,101222.17
2017-08-13T07:20:16.639Z,101227.80
2017-08-13T07:22:44.030Z,101225.47
2017-08-13T07:25:11.427Z,101235.47
2017-08-13T07:27:38.820Z,101234.67
2017-08-13T07:30:06.215Z,101232.86
2017-08-13T07:32:33.612Z,101240.84
2017-08-13T07:35:01.007Z,101246.84
2017-08-13T07:37:28.417Z,101243.30
2017-08-13T07:39:55.810Z,101249.44
2017-08-13T07:42:23.214Z,101253.26
2017-08-13T07:44:51.935Z,101260.36
2017-08-13T07:47:25.884Z,101268.15
2017-08-13T07:49:54.950Z,101265.80
2017-08-13T07:52:22.625Z,101258.16
2017-08-13T07:54:50.030Z,101255.16
2017-08-13T07:57:17.422Z,101263.87
2017-08-13T07:59:44.822Z,101257.48
2017-08-13T08:02:12.248Z,101262.83
2017-08-13T08:04:39.631Z,101256.57
2017-08-13T08:07:07.031Z,101266.02
2017-08-13T08:09:34.427Z,101262.73
2017-08-13T08:12:01.820Z,101264.83
2017-08-13T08:14:29.235Z,101272.28
2017-08-13T08:16:56.619Z,101278.81
2017-08-13T08:19:24.015Z,101279.80
2017-08-13T08:21:51.403Z,101280.75
2017-08-13T08:24:18.803Z,101281.70
2017-08-13T08:26:46.201Z,101272.43
2017-08-13T08:29:13.812Z,101278.64
2017-08-13T08:31:41.195Z,101276.84
2017-08-13T08:34:08.644Z,101278.55
2017-08-13T08:36:36.032Z,101274.08
2017-08-13T08:39:03.442Z,101276.41
2017-08-13T08:41:30.875Z,101280.27
2017-08-13T08:43:58.263Z,101277.64
2017-08-13T08:46:25.663Z,101277.37
2017-08-13T08:48:53.046Z,101284.87
2017-08-13T08:51:20.446Z,101285.39
2017-08-13T08:53:47.846Z,101284.57
2017-08-13T08:56:15.254Z,101288.52
2017-08-13T08:58:42.655Z,101290.42
2017-08-13T09:01:10.071Z,101292.19
2017-08-13T09:03:37.462Z,101285.22
2017-08-13T09:06:04.865Z,101285.48
2017-08-13T09:08:32.254Z,101288.30
2017-08-13T09:10:59.646Z,101289.05
2017-08-13T09:13:27.037Z,101288.59
2017-08-13T09:15:54.433Z,101288.80
2017-08-13T09:18:21.827Z,101297.85
2017-08-13T09:20:49.246Z,101292.55
2017-08-13T09:23:16.633Z,101291.98
2017-08-13T09:25:44.103Z,101296.23
2017-08-13T09:28:11.482Z,101292.27
2017-08-13T09:30:38.898Z,101298.05
2017-08-13T09:33:06.305Z,101306.94
2017-08-13T09:35:33.687Z,101302.91
2017-08-13T09:38:01.091Z,101303.92
2017-08-13T09:40:28.482Z,101305.09
2017-08-13T09:42:55.878Z,101309.62
2017-08-13T09:45:23.284Z,101310.32
2017-08-13T09:47:50.682Z,101307.05
2017-08-13T09:50:18.068Z,101308.69
2017-08-13T09:52:45.462Z,101313.87
2017-08-13T09:55:12.872Z,101306.84
2017-08-13T09:57:40.271Z,101307.58
2017-08-13T10:00:07.665Z,101306.59
2017-08-13T10:02:35.063Z,101307.23
2017-08-13T10:05:02.444Z,101309.50
2017-08-13T10:07:29.847Z,101303.66
2017-08-13T10:09:57.227Z,101305.02
2017-08-13T10:12:24.637Z,101312.85
2017-08-13T10:14:52.020Z,101304.11
2017-08-13T10:17:19.426Z,101308.15
2017-08-13T10:19:46.821Z,101309.49
2017-08-13T10:22:14.207Z,101314.03
2017-08-13T10:24:41.615Z,101313.61
2017-08-13T10:27:09.021Z,101317.89
2017-08-13T10:29:36.443Z,101316.67
2017-08-13T10:32:03.819Z,101312.09
2017-08-13T10:34:31.210Z,101308.05
2017-08-13T10:36:58.911Z,101318.59
2017-08-13T10:39:26.294Z,101318.93
2017-08-13T10:41:53.694Z,101311.31
2017-08-13T10:44:21.079Z,101318.41
2017-08-13T10:46:48.467Z,101319.30
2017-08-13T10:49:15.874Z,101310.63
2017-08-13T10:51:43.255Z,101312.33
2017-08-13T10:54:10.654Z,101313.34
2017-08-13T10:56:38.047Z,101313.35
2017-08-13T10:59:05.442Z,101321.77
2017-08-13T11:01:32.839Z,101323.97
2017-08-13T11:04:00.236Z,101320.55
2017-08-13T11:06:27.623Z,101333.59
2017-08-13T11:08:55.042Z,101331.89
2017-08-13T11:11:22.422Z,101330.66
2017-08-13T11:13:49.811Z,101329.24
2017-08-13T11:16:17.206Z,101323.15
2017-08-13T11:18:44.587Z,101326.84
2017-08-13T11:21:11.988Z,101325.95
2017-08-13T11:23:39.379Z,101328.59
2017-08-13T11:26:06.775Z,101332.96
2017-08-13T11:28:34.167Z,101329.69
2017-08-13T11:31:01.575Z,101336.36
2017-08-13T11:33:29.167Z,101336.06
2017-08-13T11:35:56.567Z,101336.80
2017-08-13T11:38:23.964Z,101326.74
2017-08-13T11:40:51.373Z,101332.89
2017-08-13T11:43:18.738Z,101336.75
2017-08-13T11:45:46.138Z,101332.63
2017-08-13T11:48:13.531Z,101337.48
2017-08-13T11:50:40.951Z,101339.36
2017-08-13T11:53:08.334Z,101338.50
2017-08-13T11:55:35.721Z,101346.58
2017-08-13T11:58:03.110Z,101345.76
2017-08-13T12:00:30.505Z,101350.36
2017-08-13T12:02:57.900Z,101354.06
2017-08-13T12:05:25.291Z,101359.20
2017-08-13T12:07:52.680Z,101363.81
2017-08-13T12:10:20.070Z,101363.94
2017-08-13T12:12:47.489Z,101362.76
2017-08-13T12:15:14.875Z,101368.67
2017-08-13T12:17:42.263Z,101368.38
2017-08-13T12:20:09.660Z,101369.67
2017-08-13T12:22:37.264Z,101372.86
2017-08-13T12:25:04.651Z,101375.75
2017-08-13T12:27:32.050Z,101378.84
2017-08-13T12:29:59.443Z,101374.94
2017-08-13T12:32:26.845Z,101374.19
2017-08-13T12:34:54.239Z,101368.90
2017-08-13T12:37:21.642Z,101375.94
2017-08-13T12:39:49.026Z,101373.46
2017-08-13T12:42:16.430Z,101379.20
2017-08-13T12:44:43.821Z,101383.80
2017-08-13T12:47:11.224Z,101381.83
2017-08-13T12:49:38.607Z,101383.71
2017-08-13T12:52:06.003Z,101388.88
2017-08-13T12:54:33.406Z,101388.33
2017-08-13T12:57:00.824Z,101400.59
2017-08-13T12:59:28.218Z,101399.56
2017-08-13T13:01:55.633Z,101405.53
2017-08-13T13:04:23.027Z,101402.94
2017-08-13T13:06:50.419Z,101407.39
2017-08-13T13:09:17.822Z,101404.09
2017-08-13T13:11:45.198Z,101408.85
2017-08-13T13:14:12.594Z,101406.30
2017-08-13T13:16:39.995Z,101398.45
2017-08-13T13:19:07.387Z,101407.92
2017-08-13T13:21:34.775Z,101409.13
2017-08-13T13:24:02.163Z,101412.17
2017-08-13T13:26:29.555Z,101403.13
2017-08-13T13:28:56.954Z,101412.44
2017-08-13T13:31:24.351Z,101408.85
2017-08-13T13:33:51.743Z,101412.80
2017-08-13T13:36:19.139Z,101415.77
2017-08-13T13:38:46.525Z,101412.09
2017-08-13T13:41:13.920Z,101419.00
2017-08-13T13:43:41.306Z,101420.84
2017-08-13T13:46:08.703Z,101422.33
2017-08-13T13:48:36.090Z,101421.93
2017-08-13T13:51:03.507Z,101422.27
2017-08-13T13:53:30.903Z,101426.86
2017-08-13T13:55:58.302Z,101434.70
2017-08-13T13:58:25.736Z,101429.00
2017-08-13T14:00:53.114Z,101430.01
2017-08-13T14:03:20.500Z,101428.88
2017-08-13T14:05:47.890Z,101428.28
2017-08-13T14:08:15.304Z,101422.13
2017-08-13T14:10:42.691Z,101424.82
2017-08-13T14:13:10.074Z,101433.30
2017-08-13T14:15:37.479Z,101431.26
2017-08-13T14:18:04.863Z,101428.74
2017-08-13T14:20:32.263Z,101424.17
2017-08-13T14:22:59.652Z,101428.45
2017-08-13T14:25:27.038Z,101431.14
2017-08-13T14:27:54.426Z,101431.84
2017-08-13T14:30:21.820Z,101429.23
2017-08-13T14:32:49.203Z,101432.25
2017-08-13T14:35:16.810Z,101429.84
2017-08-13T14:37:44.196Z,101425.63
2017-08-13T14:40:11.615Z,101424.36
2017-08-13T14:42:39.011Z,101429.20
2017-08-13T14:45:06.413Z,101428.42
2017-08-13T14:47:33.799Z,101425.09
2017-08-13T14:50:01.195Z,101431.53
2017-08-13T14:52:28.586Z,101433.60
2017-08-13T14:54:55.981Z,101432.88
2017-08-13T14:57:23.362Z,101431.17
2017-08-13T14:59:50.759Z,101427.70
2017-08-13T15:02:18.156Z,101428.91
2017-08-13T15:04:45.538Z,101425.44
2017-08-13T15:07:12.943Z,101435.20
2017-08-13T15:09:40.326Z,101435.33
2017-08-13T15:12:07.724Z,101436.34
2017-08-13T15:14:35.107Z,101435.47
2017-08-13T15:17:02.519Z,101444.25
2017-08-13T15:19:29.894Z,101448.72
2017-08-13T15:21:57.283Z,101444.42
2017-08-13T15:24:24.679Z,101439.00
2017-08-13T15:26:52.061Z,101438.11
2017-08-13T15:29:19.463Z,101438.83
2017-08-13T15:31:46.858Z,101439.08
2017-08-13T15:34:14.267Z,101445.53
2017-08-13T15:36:41.675Z,101438.10
2017-08-13T15:39:09.070Z,101441.42
2017-08-13T15:41:36.782Z,101434.16
2017-08-13T15:44:04.182Z,101442.91
2017-08-13T15:46:31.566Z,101437.48
2017-08-13T15:48:59.278Z,101447.86
2017-08-13T15:51:27.470Z,101445.89
2017-08-13T15:53:54.850Z,101449.77
2017-08-13T15:56:22.247Z,101452.92
2017-08-13T15:58:49.645Z,101450.66
2017-08-13T16:01:17.033Z,101458.97
2017-08-13T16:03:44.426Z,101465.20
2017-08-13T16:06:12.776Z,101464.20
2017-08-13T16:08:40.167Z,101467.45
2017-08-13T16:11:07.766Z,101471.19
2017-08-13T16:13:35.155Z,101463.64
2017-08-13T16:16:02.591Z,101467.92
2017-08-13T16:18:29.970Z,101467.31
2017-08-13T16:20:57.596Z,101468.23
2017-08-13T16:23:24.970Z,101465.83
2017-08-13T16:25:52.372Z,101467.59
2017-08-13T16:28:20.340Z,101468.63
2017-08-13T16:30:49.446Z,101476.71
2017-08-13T16:33:16.845Z,101473.60
2017-08-13T16:35:44.242Z,101477.84
2017-08-13T16:38:11.631Z,101470.34
2017-08-13T16:40:39.038Z,101474.81
2017-08-13T16:43:06.422Z,101478.67
2017-08-13T16:45:33.827Z,101478.24
2017-08-13T16:48:01.215Z,101478.33
2017-08-13T16:50:28.602Z,101478.09
2017-08-13T16:52:55.990Z,101481.66
2017-08-13T16:55:23.391Z,101485.19
2017-08-13T16:57:50.780Z,101492.59
2017-08-13T17:00:18.187Z,101494.23
2017-08-13T17:02:45.564Z,101491.44
2017-08-13T17:05:12.986Z,101486.45
2017-08-13T17:07:40.371Z,101478.64
2017-08-13T17:10:07.771Z,101480.83
2017-08-13T17:12:35.178Z,101489.34
2017-08-13T17:15:02.606Z,101494.72
2017-08-13T17:17:29.997Z,101486.91
2017-08-13T17:19:57.390Z,101497.63
2017-08-13T17:22:24.804Z,101497.22
2017-08-13T17:24:52.176Z,101500.44
2017-08-13T17:27:19.577Z,101495.22
2017-08-13T17:29:46.970Z,101498.32
2017-08-13T17:32:14.375Z,101501.13
2017-08-13T17:34:41.773Z,101502.77
2017-08-13T17:37:09.150Z,101503.16
2017-08-13T17:39:36.544Z,101503.66
2017-08-13T17:42:04.496Z,101504.73
2017-08-13T17:44:31.890Z,101514.67
2017-08-13T17:46:59.286Z,101510.28
2017-08-13T17:49:26.689Z,101506.04
2017-08-13T17:51:54.081Z,101509.58
2017-08-13T17:54:21.482Z,101512.88
2017-08-13T17:56:48.871Z,101510.91
2017-08-13T17:59:16.270Z,101517.87
2017-08-13T18:01:43.696Z,101522.48
2017-08-13T18:04:11.074Z,101523.09
2017-08-13T18:06:38.478Z,101526.02
2017-08-13T18:09:05.871Z,101527.00
2017-08-13T18:11:33.255Z,101532.72
2017-08-13T18:14:00.655Z,101534.82
2017-08-13T18:16:28.379Z,101531.08
2017-08-13T18:18:55.780Z,101528.58
2017-08-13T18:23:56.894Z,101530.98
2017-08-13T18:26:24.499Z,101535.45
2017-08-13T18:28:51.903Z,101543.11
2017-08-13T18:31:19.284Z,101544.80
2017-08-13T18:33:46.686Z,101541.47
2017-08-13T18:36:14.070Z,101537.71
2017-08-13T18:38:41.458Z,101541.81
2017-08-13T18:41:08.850Z,101557.44
2017-08-13T18:43:36.238Z,101553.33
2017-08-13T18:46:03.631Z,101554.59
2017-08-13T18:48:31.034Z,101561.61
2017-08-13T18:50:58.419Z,101560.97
2017-08-13T18:53:25.828Z,101564.31
2017-08-13T18:55:53.214Z,101569.34
2017-08-13T18:58:20.601Z,101571.98
2017-08-13T19:00:48.007Z,101571.61
2017-08-13T19:03:15.402Z,101568.59
2017-08-13T19:05:42.783Z,101577.20
2017-08-13T19:08:10.175Z,101578.50
2017-08-13T19:10:37.568Z,101581.44
2017-08-13T19:13:04.956Z,101583.70
2017-08-13T19:15:32.350Z,101585.29
2017-08-13T19:17:59.746Z,101588.80
2017-08-13T19:20:27.143Z,101591.75
2017-08-13T19:22:54.538Z,101594.92
2017-08-13T19:25:21.930Z,101593.13
2017-08-13T19:27:49.338Z,101595.95
2017-08-13T19:30:16.730Z,101590.99
2017-08-13T19:32:44.123Z,101600.35
2017-08-13T19:35:11.523Z,101599.38
2017-08-13T19:37:38.942Z,101602.92
2017-08-13T19:40:06.341Z,101602.92
2017-08-13T19:42:33.740Z,101606.67
2017-08-13T19:45:01.126Z,101600.09
2017-08-13T19:47:28.549Z,101610.84
2017-08-13T19:49:55.933Z,101609.41
2017-08-13T19:52:23.335Z,101614.30
2017-08-13T19:54:50.728Z,101612.09
2017-08-13T19:57:18.127Z,101611.59
2017-08-13T19:59:45.515Z,101612.75
2017-08-13T20:02:12.917Z,101612.19
2017-08-13T20:04:40.332Z,101618.27
2017-08-13T20:07:07.731Z,101614.34
2017-08-13T20:09:35.612Z,101615.45
2017-08-13T20:12:03.249Z,101617.03
2017-08-13T20:14:30.630Z,101612.84
2017-08-13T20:16:58.057Z,101620.94
2017-08-13T20:19:25.443Z,101622.05
2017-08-13T20:21:52.844Z,101621.78
2017-08-13T20:24:20.222Z,101624.64
2017-08-13T20:26:47.655Z,101626.18
2017-08-13T20:29:15.039Z,101626.95
2017-08-13T20:31:42.426Z,101630.59
2017-08-13T20:34:09.820Z,101634.84
2017-08-13T20:36:37.298Z,101635.60
2017-08-13T20:39:04.686Z,101636.28
2017-08-13T20:41:32.075Z,101630.05
2017-08-13T20:43:59.467Z,101636.64
2017-08-13T20:46:26.859Z,101634.23
2017-08-13T20:48:54.253Z,101638.63
2017-08-13T20:51:21.645Z,101642.28
2017-08-13T20:53:49.034Z,101640.52
2017-08-13T20:56:16.426Z,101640.98
2017-08-13T20:58:43.823Z,101645.23
2017-08-13T21:01:11.211Z,101652.70
2017-08-13T21:03:38.603Z,101650.49
2017-08-13T21:06:06.015Z,101651.41
2017-08-13T21:08:33.431Z,101660.48
2017-08-13T21:11:00.822Z,101657.95
2017-08-13T21:13:28.294Z,101656.48
2017-08-13T21:15:55.667Z,101661.94
2017-08-13T21:18:23.068Z,101659.72
2017-08-13T21:20:50.486Z,101658.91
2017-08-13T21:23:17.911Z,101655.98
2017-08-13T21:25:45.291Z,101654.80
2017-08-13T21:28:12.707Z,101655.08
2017-08-13T21:30:40.104Z,101661.66
2017-08-13T21:33:07.490Z,101652.92
2017-08-13T21:35:34.891Z,101656.03
2017-08-13T21:38:02.271Z,101653.77
2017-08-13T21:40:29.675Z,101653.20
2017-08-13T21:42:57.076Z,101661.57
2017-08-13T21:45:24.457Z,101664.03
2017-08-13T21:47:52.069Z,101664.97
2017-08-13T21:50:19.675Z,101664.25
2017-08-13T21:52:47.074Z,101663.39
2017-08-13T21:55:14.471Z,101666.16
2017-08-13T21:57:41.859Z,101666.72
2017-08-13T22:00:09.263Z,101672.92
2017-08-13T22:02:36.679Z,101671.95
2017-08-13T22:05:04.074Z,101670.26
2017-08-13T22:07:31.458Z,101671.72
2017-08-13T22:09:58.868Z,101674.64
2017-08-13T22:12:26.261Z,101678.52
2017-08-13T22:14:53.646Z,101671.19
2017-08-13T22:17:21.042Z,101675.67
2017-08-13T22:19:48.439Z,101688.56
2017-08-13T22:22:15.855Z,101680.47
2017-08-13T22:24:43.234Z,101677.99
2017-08-13T22:27:10.662Z,101673.84
2017-08-13T22:29:38.637Z,101671.72
2017-08-13T22:32:06.026Z,101679.31
2017-08-13T22:34:33.450Z,101683.47
2017-08-13T22:37:00.854Z,101671.95
2017-08-13T22:39:28.261Z,101676.64
2017-08-13T22:41:55.651Z,101679.00
2017-08-13T22:44:23.045Z,101682.70
2017-08-13T22:46:50.439Z,101679.75
2017-08-13T22:49:17.837Z,101684.28
2017-08-13T22:51:45.224Z,101681.37
2017-08-13T22:54:12.610Z,101687.45
2017-08-13T22:56:40.016Z,101688.90
2017-08-13T22:59:07.407Z,101687.06
2017-08-13T23:01:34.807Z,101688.23
2017-08-13T23:04:02.194Z,101685.13
2017-08-13T23:06:29.900Z,101681.55
2017-08-13T23:08:57.270Z,101681.89
2017-08-13T23:11:24.654Z,101688.02
2017-08-13T23:13:52.060Z,101685.41
2017-08-13T23:16:19.442Z,101690.19
2017-08-13T23:18:46.856Z,101687.02
2017-08-13T23:21:14.243Z,101686.12
2017-08-13T23:23:41.650Z,101686.94
2017-08-13T23:26:09.041Z,101693.94
2017-08-13T23:28:36.435Z,101690.41
2017-08-13T23:31:03.818Z,101691.94
2017-08-13T23:33:31.224Z,101697.14
2017-08-13T23:35:58.617Z,101694.25
2017-08-13T23:38:26.023Z,101693.20
2017-08-13T23:40:53.420Z,101700.25
2017-08-13T23:43:20.810Z,101695.52
2017-08-13T23:45:48.214Z,101700.27
2017-08-13T23:48:15.615Z,101696.86
2017-08-13T23:50:43.002Z,101698.33
2017-08-13T23:53:10.423Z,101698.08
2017-08-13T23:55:37.819Z,101698.34
2017-08-13T23:58:05.207Z,101703.35
